createdAt,value
2023-03-13T00:01:51.404Z,6.90
2023-03-13T00:04:20.206Z,6.80
2023-03-13T00:06:48.673Z,6.80
2023-03-13T00:09:18.592Z,6.60
2023-03-13T00:11:48.140Z,6.70
2023-03-13T00:14:16.572Z,6.80
2023-03-13T00:16:45.056Z,6.90
2023-03-13T00:19:13.546Z,6.70
2023-03-13T00:21:42.585Z,6.80
2023-03-13T00:24:13.246Z,6.80
2023-03-13T00:26:41.644Z,6.80
2023-03-13T00:29:10.061Z,6.90
2023-03-13T00:31:39.177Z,7.00
2023-03-13T00:34:07.602Z,7.00
2023-03-13T00:36:37.297Z,7.10
2023-03-13T00:39:08.223Z,7.10
2023-03-13T00:41:38.338Z,7.20
2023-03-13T00:44:07.203Z,7.10
2023-03-13T00:46:35.726Z,7.10
2023-03-13T00:49:05.016Z,7.10
2023-03-13T00:51:33.409Z,7.20
2023-03-13T00:54:02.476Z,7.30
2023-03-13T00:56:31.187Z,7.40
2023-03-13T00:59:02.680Z,7.60
2023-03-13T01:01:34.430Z,7.50
2023-03-13T01:04:13.728Z,7.60
2023-03-13T01:06:43.746Z,7.40
2023-03-13T01:09:15.280Z,7.30
2023-03-13T01:11:44.965Z,7.50
2023-03-13T01:14:19.298Z,7.50
2023-03-13T01:16:48.016Z,7.50
2023-03-13T01:19:18.002Z,7.40
2023-03-13T01:21:47.212Z,7.40
2023-03-13T01:24:16.268Z,7.40
2023-03-13T01:26:44.837Z,7.50
2023-03-13T01:29:13.271Z,7.40
2023-03-13T01:31:41.728Z,7.30
2023-03-13T01:34:11.705Z,7.30
2023-03-13T01:36:40.318Z,7.30
2023-03-13T01:39:08.830Z,7.40
2023-03-13T01:41:38.490Z,7.40
2023-03-13T01:44:07.023Z,7.40
2023-03-13T01:46:35.468Z,7.40
2023-03-13T01:49:17.149Z,7.40
2023-03-13T01:52:05.349Z,7.30
2023-03-13T01:54:39.856Z,7.20
2023-03-13T01:57:17.660Z,7.30
2023-03-13T01:59:54.795Z,7.20
2023-03-13T02:02:24.583Z,7.30
2023-03-13T02:04:58.864Z,7.50
2023-03-13T02:07:42.613Z,7.30
2023-03-13T02:10:14.344Z,7.30
2023-03-13T02:12:43.180Z,7.20
2023-03-13T02:15:23.500Z,7.30
2023-03-13T02:17:52.688Z,7.20
2023-03-13T02:20:23.180Z,7.20
2023-03-13T02:23:13.231Z,7.00
2023-03-13T02:25:47.414Z,7.10
2023-03-13T02:28:21.509Z,7.20
2023-03-13T02:30:52.894Z,7.20
2023-03-13T02:33:22.351Z,7.10
2023-03-13T02:35:51.298Z,7.20
2023-03-13T02:38:25.170Z,7.20
2023-03-13T02:40:55.570Z,7.20
2023-03-13T02:43:32.353Z,7.30
2023-03-13T02:46:09.000Z,7.30
2023-03-13T02:48:45.738Z,7.30
2023-03-13T02:51:45.880Z,7.20
2023-03-13T02:54:36.821Z,7.40
2023-03-13T02:57:06.731Z,7.40
2023-03-13T02:59:36.405Z,7.40
2023-03-13T03:02:06.053Z,7.60
2023-03-13T03:04:34.494Z,7.40
2023-03-13T03:07:02.953Z,7.40
2023-03-13T03:09:31.963Z,7.40
2023-03-13T03:12:00.430Z,7.50
2023-03-13T03:14:28.983Z,7.60
2023-03-13T03:16:57.372Z,7.40
2023-03-13T03:19:26.023Z,7.50
2023-03-13T03:21:54.528Z,7.40
2023-03-13T03:24:22.997Z,7.30
2023-03-13T03:26:51.383Z,7.40
2023-03-13T03:29:19.971Z,7.20
2023-03-13T03:31:48.446Z,7.30
2023-03-13T03:34:17.148Z,7.20
2023-03-13T03:36:45.618Z,7.20
2023-03-13T03:39:14.223Z,7.10
2023-03-13T03:41:42.647Z,7.00
2023-03-13T03:44:11.111Z,7.00
2023-03-13T03:46:39.549Z,7.30
2023-03-13T03:49:08.056Z,7.30
2023-03-13T03:51:36.479Z,7.30
2023-03-13T03:54:05.556Z,7.10
2023-03-13T03:56:33.975Z,7.10
2023-03-13T03:59:02.460Z,7.10
2023-03-13T04:01:30.842Z,7.30
2023-03-13T04:03:59.215Z,7.10
2023-03-13T04:06:27.697Z,7.10
2023-03-13T04:08:56.871Z,7.10
2023-03-13T04:11:25.343Z,7.40
2023-03-13T04:13:53.779Z,7.20
2023-03-13T04:16:22.269Z,7.20
2023-03-13T04:18:50.719Z,7.20
2023-03-13T04:21:19.282Z,7.20
2023-03-13T04:23:48.145Z,7.10
2023-03-13T04:26:16.523Z,7.30
2023-03-13T04:28:45.213Z,7.20
2023-03-13T04:31:13.661Z,7.00
2023-03-13T04:33:42.284Z,7.00
2023-03-13T04:36:11.296Z,7.20
2023-03-13T04:38:39.751Z,7.00
2023-03-13T04:41:08.172Z,7.00
2023-03-13T04:43:36.623Z,7.20
2023-03-13T04:46:05.146Z,7.10
2023-03-13T04:48:33.726Z,7.00
2023-03-13T04:51:02.166Z,7.00
2023-03-13T04:53:30.570Z,7.20
2023-03-13T04:55:58.977Z,7.00
2023-03-13T04:58:27.461Z,7.20
2023-03-13T05:00:57.469Z,6.90
2023-03-13T05:03:25.961Z,6.90
2023-03-13T05:05:54.385Z,6.90
2023-03-13T05:08:22.843Z,6.90
2023-03-13T05:10:51.230Z,6.80
2023-03-13T05:13:19.837Z,7.10
2023-03-13T05:15:48.252Z,6.90
2023-03-13T05:18:16.785Z,6.90
2023-03-13T05:20:45.202Z,7.00
2023-03-13T05:23:13.651Z,7.00
2023-03-13T05:25:42.563Z,7.00
2023-03-13T05:28:11.035Z,6.90
2023-03-13T05:30:40.097Z,6.90
2023-03-13T05:33:08.493Z,6.90
2023-03-13T05:35:39.445Z,6.70
2023-03-13T05:38:08.807Z,6.90
2023-03-13T05:40:37.243Z,7.10
2023-03-13T05:43:05.790Z,7.00
2023-03-13T05:45:34.372Z,7.20
2023-03-13T05:48:02.992Z,7.30
2023-03-13T05:50:31.507Z,7.20
2023-03-13T05:52:59.955Z,7.20
2023-03-13T05:55:28.470Z,7.30
2023-03-13T05:57:57.086Z,7.20
2023-03-13T06:00:25.663Z,7.20
2023-03-13T06:02:54.046Z,7.10
2023-03-13T06:05:22.486Z,7.00
2023-03-13T06:07:51.759Z,7.20
2023-03-13T06:10:20.223Z,6.90
2023-03-13T06:12:55.316Z,6.90
2023-03-13T06:15:24.663Z,6.90
2023-03-13T06:17:53.114Z,6.80
2023-03-13T06:20:21.691Z,6.80
2023-03-13T06:22:50.324Z,6.70
2023-03-13T06:25:18.836Z,6.70
2023-03-13T06:27:47.256Z,6.90
2023-03-13T06:30:15.823Z,6.70
2023-03-13T06:32:44.360Z,6.70
2023-03-13T06:35:12.842Z,6.70
2023-03-13T06:37:41.219Z,6.70
2023-03-13T06:40:10.537Z,6.80
2023-03-13T06:42:39.409Z,6.70
2023-03-13T06:45:08.456Z,6.70
2023-03-13T06:47:37.103Z,6.70
2023-03-13T06:50:05.736Z,6.70
2023-03-13T06:52:43.046Z,6.70
2023-03-13T06:55:12.796Z,6.70
2023-03-13T06:57:41.652Z,6.90
2023-03-13T07:00:12.639Z,6.90
2023-03-13T07:02:41.012Z,6.80
2023-03-13T07:05:10.037Z,6.60
2023-03-13T07:07:38.634Z,6.70
2023-03-13T07:10:07.481Z,6.70
2023-03-13T07:12:39.618Z,6.70
2023-03-13T07:15:08.635Z,6.80
2023-03-13T07:17:37.141Z,6.80
2023-03-13T07:20:08.055Z,6.70
2023-03-13T07:22:36.539Z,6.70
2023-03-13T07:25:06.306Z,6.70
2023-03-13T07:27:35.005Z,6.80
2023-03-13T07:30:03.498Z,6.80
2023-03-13T07:32:35.059Z,6.70
2023-03-13T07:35:05.768Z,6.60
2023-03-13T07:37:34.177Z,6.90
2023-03-13T07:40:02.626Z,6.80
2023-03-13T07:42:31.043Z,6.80
2023-03-13T07:44:59.430Z,6.90
2023-03-13T07:47:27.884Z,6.80
2023-03-13T07:49:56.373Z,6.70
2023-03-13T07:52:25.063Z,6.90
2023-03-13T07:54:53.494Z,6.90
2023-03-13T07:57:22.304Z,6.80
2023-03-13T07:59:50.704Z,6.90
2023-03-13T08:02:19.431Z,6.80
2023-03-13T08:04:47.926Z,6.90
2023-03-13T08:07:16.307Z,6.90
2023-03-13T08:09:44.736Z,6.90
2023-03-13T08:12:13.208Z,6.80
2023-03-13T08:14:42.195Z,7.10
2023-03-13T08:17:10.643Z,6.90
2023-03-13T08:19:39.339Z,7.20
2023-03-13T08:22:07.795Z,7.20
2023-03-13T08:24:36.205Z,7.10
2023-03-13T08:27:04.679Z,7.20
2023-03-13T08:29:33.113Z,7.20
2023-03-13T08:32:01.644Z,7.20
2023-03-13T08:34:30.034Z,7.10
2023-03-13T08:36:58.998Z,7.10
2023-03-13T08:39:27.426Z,7.10
2023-03-13T08:41:55.891Z,7.10
2023-03-13T08:44:24.355Z,7.10
2023-03-13T08:46:53.256Z,7.10
2023-03-13T08:49:21.697Z,7.20
2023-03-13T08:51:50.088Z,7.20
2023-03-13T08:54:18.516Z,7.20
2023-03-13T08:56:47.479Z,7.20
2023-03-13T08:59:19.035Z,7.20
2023-03-13T09:01:47.401Z,7.50
2023-03-13T09:04:16.077Z,7.30
2023-03-13T09:06:44.600Z,7.30
2023-03-13T09:09:15.096Z,7.40
2023-03-13T09:11:43.497Z,7.30
2023-03-13T09:14:12.887Z,7.30
2023-03-13T09:16:41.412Z,7.40
2023-03-13T09:19:10.215Z,7.20
2023-03-13T09:21:38.635Z,7.30
2023-03-13T09:24:07.605Z,7.60
2023-03-13T09:26:36.081Z,7.20
2023-03-13T09:29:04.666Z,7.20
2023-03-13T09:31:34.450Z,7.30
2023-03-13T09:34:03.262Z,7.20
2023-03-13T09:36:31.916Z,7.20
2023-03-13T09:39:01.352Z,7.20
2023-03-13T09:41:51.550Z,7.10
2023-03-13T09:44:32.970Z,7.20
2023-03-13T09:47:05.827Z,7.20
2023-03-13T09:49:49.632Z,7.30
2023-03-13T09:52:18.025Z,7.50
2023-03-13T09:54:49.300Z,7.50
2023-03-13T09:57:32.893Z,7.30
2023-03-13T10:00:17.581Z,7.50
2023-03-13T10:02:49.312Z,7.50
2023-03-13T10:05:29.714Z,7.40
2023-03-13T10:08:25.512Z,7.40
2023-03-13T10:11:04.712Z,7.50
2023-03-13T10:13:37.773Z,7.20
2023-03-13T10:16:36.066Z,7.20
2023-03-13T10:19:17.453Z,7.20
2023-03-13T10:21:51.534Z,7.20
2023-03-13T10:24:47.705Z,7.20
2023-03-13T10:27:17.161Z,7.30
2023-03-13T10:29:45.624Z,7.50
2023-03-13T10:32:18.046Z,7.30
2023-03-13T10:35:04.163Z,7.30
2023-03-13T10:37:42.385Z,7.20
2023-03-13T10:40:25.622Z,7.30
2023-03-13T10:43:01.910Z,7.60
2023-03-13T10:45:35.916Z,7.50
2023-03-13T10:48:15.907Z,7.50
2023-03-13T10:50:47.864Z,7.20
2023-03-13T10:53:25.315Z,7.30
2023-03-13T10:56:11.269Z,6.80
2023-03-13T10:58:45.971Z,6.70
2023-03-13T11:01:32.607Z,6.60
2023-03-13T11:04:19.708Z,6.90
2023-03-13T11:07:05.394Z,6.60
2023-03-13T11:09:34.247Z,6.70
2023-03-13T11:12:13.038Z,6.60
2023-03-13T11:14:43.541Z,6.80
2023-03-13T11:17:26.426Z,6.80
2023-03-13T11:19:59.584Z,6.80
2023-03-13T11:22:52.076Z,6.80
2023-03-13T11:26:05.617Z,6.60
2023-03-13T11:28:37.266Z,6.50
2023-03-13T11:31:25.944Z,6.60
2023-03-13T11:34:28.613Z,6.80
2023-03-13T11:37:10.968Z,6.70
2023-03-13T11:39:48.487Z,6.80
2023-03-13T11:42:54.692Z,6.80
2023-03-13T11:45:49.872Z,6.80
2023-03-13T11:48:36.951Z,6.80
2023-03-13T11:51:30.209Z,6.80
2023-03-13T11:54:10.330Z,6.90
2023-03-13T11:56:57.518Z,6.90
2023-03-13T11:59:55.285Z,7.20
2023-03-13T12:02:33.726Z,6.80
2023-03-13T12:05:08.451Z,7.10
2023-03-13T12:07:46.425Z,6.90
2023-03-13T12:10:23.171Z,6.80
2023-03-13T12:13:13.251Z,6.80
2023-03-13T12:16:11.462Z,6.70
2023-03-13T12:18:42.525Z,6.70
2023-03-13T12:21:14.400Z,6.70
2023-03-13T12:24:07.453Z,6.80
2023-03-13T12:26:57.559Z,6.90
2023-03-13T12:29:47.358Z,7.20
2023-03-13T12:32:40.201Z,7.00
2023-03-13T12:35:23.790Z,7.10
2023-03-13T12:38:04.496Z,7.50
2023-03-13T12:40:57.322Z,7.50
2023-03-13T12:43:32.802Z,7.40
2023-03-13T12:46:01.719Z,7.30
2023-03-13T12:48:51.423Z,7.60
2023-03-13T12:51:25.906Z,7.40
2023-03-13T12:54:09.751Z,7.40
2023-03-13T12:56:47.626Z,7.50
2023-03-13T12:59:22.390Z,7.70
2023-03-13T13:01:55.072Z,7.90
2023-03-13T13:04:34.135Z,7.90
2023-03-13T13:07:06.777Z,8.20
2023-03-13T13:09:40.533Z,8.30
2023-03-13T13:12:24.530Z,8.50
2023-03-13T13:14:53.297Z,8.60
2023-03-13T13:17:28.213Z,8.70
2023-03-13T13:19:57.475Z,8.80
2023-03-13T13:22:38.830Z,8.80
2023-03-13T13:25:19.687Z,8.90
2023-03-13T13:27:52.846Z,9.00
2023-03-13T13:30:21.245Z,9.00
2023-03-13T13:32:57.204Z,9.20
2023-03-13T13:35:34.469Z,9.00
2023-03-13T13:38:21.146Z,9.00
2023-03-13T13:41:27.292Z,9.10
2023-03-13T13:44:28.467Z,9.30
2023-03-13T13:46:59.513Z,9.20
2023-03-13T13:49:33.845Z,9.10
2023-03-13T13:52:05.972Z,9.30
2023-03-13T13:54:46.634Z,9.30
2023-03-13T13:57:37.953Z,9.30
2023-03-13T14:00:26.054Z,9.50
2023-03-13T14:02:56.330Z,9.30
2023-03-13T14:05:30.947Z,9.40
2023-03-13T14:07:59.356Z,9.40
2023-03-13T14:10:50.711Z,9.50
2023-03-13T14:13:21.754Z,9.40
2023-03-13T14:15:53.729Z,9.40
2023-03-13T14:18:25.223Z,9.50
2023-03-13T14:21:02.677Z,9.50
2023-03-13T14:23:35.748Z,9.50
2023-03-13T14:26:23.907Z,9.50
2023-03-13T14:29:00.476Z,9.40
2023-03-13T14:31:33.715Z,9.50
2023-03-13T14:34:24.697Z,9.50
2023-03-13T14:37:14.925Z,9.60
2023-03-13T14:39:49.561Z,9.60
2023-03-13T14:42:19.809Z,9.70
2023-03-13T14:44:50.942Z,9.70
2023-03-13T14:47:32.636Z,9.70
2023-03-13T14:50:10.927Z,9.70
2023-03-13T14:52:42.378Z,9.70
2023-03-13T14:55:25.342Z,9.80
2023-03-13T14:58:01.443Z,9.90
2023-03-13T15:00:36.456Z,9.70
2023-03-13T15:03:22.294Z,9.70
2023-03-13T15:06:15.990Z,9.80
2023-03-13T15:08:47.272Z,9.80
2023-03-13T15:11:27.340Z,9.30
2023-03-13T15:13:56.708Z,9.10
2023-03-13T15:16:26.621Z,9.10
2023-03-13T15:18:55.938Z,8.70
2023-03-13T15:21:27.696Z,8.90
2023-03-13T15:24:18.648Z,8.80
2023-03-13T15:26:48.997Z,8.80
2023-03-13T15:29:19.097Z,8.50
2023-03-13T15:31:47.664Z,8.20
2023-03-13T15:34:17.333Z,8.20
2023-03-13T15:36:45.757Z,8.10
2023-03-13T15:39:23.336Z,8.20
2023-03-13T15:41:52.257Z,7.80
2023-03-13T15:44:20.934Z,7.80
2023-03-13T15:46:49.502Z,7.90
2023-03-13T15:49:17.891Z,7.60
2023-03-13T15:51:46.343Z,7.50
2023-03-13T15:54:15.186Z,7.30
2023-03-13T15:56:43.826Z,7.60
2023-03-13T15:59:17.304Z,7.10
2023-03-13T16:01:49.933Z,7.00
2023-03-13T16:04:18.449Z,7.00
2023-03-13T16:06:47.376Z,7.00
2023-03-13T16:09:18.200Z,7.00
2023-03-13T16:11:46.737Z,7.10
2023-03-13T16:14:15.334Z,7.00
2023-03-13T16:16:43.790Z,7.20
2023-03-13T16:19:12.522Z,6.90
2023-03-13T16:21:43.908Z,6.90
2023-03-13T16:24:12.387Z,7.20
2023-03-13T16:26:41.237Z,7.20
2023-03-13T16:29:16.509Z,6.70
2023-03-13T16:31:45.144Z,6.90
2023-03-13T16:34:13.533Z,7.20
2023-03-13T16:36:42.007Z,7.20
2023-03-13T16:39:21.056Z,7.00
2023-03-13T16:41:50.134Z,7.20
2023-03-13T16:44:18.550Z,7.20
2023-03-13T16:47:02.792Z,7.00
2023-03-13T16:49:33.056Z,7.20
2023-03-13T16:52:01.493Z,7.00
2023-03-13T16:54:29.888Z,7.10
2023-03-13T16:57:00.018Z,7.10
2023-03-13T16:59:29.490Z,7.20
2023-03-13T17:01:57.898Z,7.10
2023-03-13T17:04:26.465Z,7.10
2023-03-13T17:06:55.402Z,7.10
2023-03-13T17:09:23.816Z,7.30
2023-03-13T17:11:52.794Z,7.50
2023-03-13T17:14:21.197Z,7.50
2023-03-13T17:16:49.668Z,7.20
2023-03-13T17:19:19.063Z,7.50
2023-03-13T17:21:47.649Z,7.50
2023-03-13T17:24:16.040Z,7.50
2023-03-13T17:26:44.580Z,7.30
2023-03-13T17:29:19.919Z,7.10
2023-03-13T17:31:48.334Z,7.10
2023-03-13T17:34:17.613Z,7.20
2023-03-13T17:36:47.630Z,7.30
2023-03-13T17:39:16.674Z,7.30
2023-03-13T17:41:45.100Z,7.20
2023-03-13T17:44:13.764Z,7.40
2023-03-13T17:46:45.715Z,7.50
2023-03-13T17:49:15.757Z,7.60
2023-03-13T17:51:47.093Z,7.50
2023-03-13T17:54:16.101Z,7.60
2023-03-13T17:56:45.805Z,7.90
2023-03-13T17:59:18.185Z,7.80
2023-03-13T18:01:46.952Z,7.80
2023-03-13T18:04:15.523Z,7.60
2023-03-13T18:06:49.556Z,7.50
2023-03-13T18:09:20.645Z,7.50
2023-03-13T18:11:50.705Z,7.30
2023-03-13T18:14:19.134Z,7.60
2023-03-13T18:16:50.890Z,7.50
2023-03-13T18:19:22.699Z,7.60
2023-03-13T18:21:56.482Z,7.50
2023-03-13T18:24:24.950Z,7.60
2023-03-13T18:26:54.016Z,7.50
2023-03-13T18:29:27.175Z,7.50
2023-03-13T18:31:57.997Z,7.60
2023-03-13T18:34:27.186Z,7.50
2023-03-13T18:36:56.387Z,7.50
2023-03-13T18:39:24.797Z,7.50
2023-03-13T18:41:53.583Z,7.50
2023-03-13T18:44:22.022Z,7.50
2023-03-13T18:46:52.072Z,7.60
2023-03-13T18:49:25.559Z,7.90
2023-03-13T18:51:54.875Z,7.90
2023-03-13T18:54:23.268Z,8.10
2023-03-13T18:56:51.725Z,8.20
2023-03-13T18:59:22.678Z,7.90
2023-03-13T19:01:51.949Z,8.20
2023-03-13T19:04:20.831Z,8.10
2023-03-13T19:06:49.647Z,7.70
2023-03-13T19:09:42.103Z,7.60
2023-03-13T19:12:11.181Z,7.20
2023-03-13T19:14:40.270Z,7.50
2023-03-13T19:17:20.656Z,7.30
2023-03-13T19:19:49.102Z,7.40
2023-03-13T19:22:17.770Z,7.20
2023-03-13T19:24:46.173Z,7.10
2023-03-13T19:27:16.039Z,6.80
2023-03-13T19:29:45.322Z,6.70
2023-03-13T19:32:18.628Z,7.00
2023-03-13T19:34:47.120Z,6.70
2023-03-13T19:37:17.716Z,6.70
2023-03-13T19:39:46.479Z,6.80
2023-03-13T19:42:14.856Z,6.80
2023-03-13T19:44:43.686Z,7.10
2023-03-13T19:47:16.538Z,7.00
2023-03-13T19:49:46.240Z,6.70
2023-03-13T19:52:14.618Z,6.90
2023-03-13T19:54:43.075Z,7.20
2023-03-13T19:57:12.563Z,7.20
2023-03-13T19:59:41.021Z,6.90
2023-03-13T20:02:12.373Z,6.50
2023-03-13T20:04:42.934Z,6.20
2023-03-13T20:07:11.956Z,6.30
2023-03-13T20:09:40.430Z,6.00
2023-03-13T20:12:08.954Z,6.10
2023-03-13T20:14:37.335Z,6.00
2023-03-13T20:17:06.252Z,6.10
2023-03-13T20:19:34.754Z,6.30
2023-03-13T20:22:05.960Z,6.50
2023-03-13T20:24:34.660Z,6.50
2023-03-13T20:27:03.737Z,6.50
2023-03-13T20:29:32.592Z,6.10
2023-03-13T20:32:02.706Z,6.20
2023-03-13T20:34:31.314Z,5.90
2023-03-13T20:37:00.811Z,5.80
2023-03-13T20:39:30.250Z,5.80
2023-03-13T20:42:02.618Z,6.00
2023-03-13T20:44:31.501Z,5.90
2023-03-13T20:46:59.900Z,5.90
2023-03-13T20:49:28.400Z,5.90
2023-03-13T20:51:56.959Z,5.60
2023-03-13T20:54:25.848Z,5.70
2023-03-13T20:56:54.518Z,5.70
2023-03-13T20:59:22.925Z,5.90
2023-03-13T21:01:51.387Z,5.90
2023-03-13T21:04:20.303Z,5.70
2023-03-13T21:06:50.759Z,5.70
2023-03-13T21:09:19.205Z,6.20
2023-03-13T21:11:47.804Z,6.20
2023-03-13T21:14:16.179Z,6.00
2023-03-13T21:16:44.592Z,6.00
2023-03-13T21:19:13.765Z,5.60
2023-03-13T21:21:42.536Z,5.60
2023-03-13T21:24:11.511Z,5.80
2023-03-13T21:26:39.900Z,5.90
2023-03-13T21:29:10.286Z,5.80
2023-03-13T21:31:39.480Z,5.80
2023-03-13T21:34:08.310Z,5.50
2023-03-13T21:36:37.003Z,5.60
2023-03-13T21:39:08.543Z,5.80
2023-03-13T21:41:37.246Z,5.70
2023-03-13T21:44:05.886Z,5.60
2023-03-13T21:46:34.355Z,5.30
2023-03-13T21:49:02.876Z,5.30
2023-03-13T21:51:31.305Z,5.60
2023-03-13T21:53:59.691Z,5.60
2023-03-13T21:56:28.186Z,5.90
2023-03-13T21:58:57.091Z,5.90
2023-03-13T22:01:25.752Z,5.90
2023-03-13T22:03:54.809Z,5.90
2023-03-13T22:06:23.579Z,5.90
2023-03-13T22:08:52.013Z,5.90
2023-03-13T22:11:20.592Z,5.80
2023-03-13T22:13:48.996Z,5.70
2023-03-13T22:16:17.390Z,6.00
2023-03-13T22:18:45.827Z,6.20
2023-03-13T22:21:15.909Z,6.10
2023-03-13T22:23:44.648Z,6.20
2023-03-13T22:26:14.677Z,6.20
2023-03-13T22:28:43.257Z,6.00
2023-03-13T22:31:12.999Z,5.90
2023-03-13T22:33:41.439Z,6.10
2023-03-13T22:36:10.730Z,6.20
2023-03-13T22:38:40.667Z,6.60
2023-03-13T22:41:13.573Z,6.60
2023-03-13T22:43:42.040Z,6.50
2023-03-13T22:46:12.101Z,6.30
2023-03-13T22:48:41.223Z,6.50
2023-03-13T22:51:15.526Z,6.50
2023-03-13T22:53:44.640Z,6.90
2023-03-13T22:56:13.827Z,6.90
2023-03-13T22:58:43.058Z,6.70
2023-03-13T23:01:15.239Z,6.50
2023-03-13T23:03:44.051Z,6.60
2023-03-13T23:06:20.968Z,6.90
2023-03-13T23:08:49.976Z,6.80
2023-03-13T23:11:19.271Z,6.60
2023-03-13T23:13:48.472Z,6.60
2023-03-13T23:16:16.928Z,6.90
2023-03-13T23:18:45.407Z,6.90
2023-03-13T23:21:15.532Z,6.70
2023-03-13T23:23:45.026Z,6.50
2023-03-13T23:26:16.369Z,6.80
2023-03-13T23:28:45.463Z,6.60
2023-03-13T23:31:19.501Z,6.90
2023-03-13T23:33:49.009Z,6.40
2023-03-13T23:36:19.472Z,6.50
2023-03-13T23:38:52.710Z,6.00
2023-03-13T23:41:22.298Z,6.30
2023-03-13T23:43:51.214Z,6.20
2023-03-13T23:46:24.348Z,6.40
2023-03-13T23:48:57.183Z,6.10
2023-03-13T23:51:26.376Z,6.00
2023-03-13T23:53:54.783Z,6.10
2023-03-13T23:56:25.397Z,6.10
2023-03-13T23:58:57.170Z,6.00
